Terminal Aerodrome Forecast
Issued by NWS Charleston, WV

Current Version | Previous Version | Text Only | Print | Product List | Glossary Off
Versions: 1 2 3 4 5 6 7 8 9 10 11 12 13 14 15 16 17 18 19 20 21 22 23 24 25

499
FTUS41 KRLX 110539 CCA
TAFEKN
TAF COR
KEKN 110539Z 1106/1206 29013G17KT 3SM -SN BKN021 OVC027
     FM111200 28012G18KT 6SM -SHSN OVC015
     FM111800 29012G18KT P6SM OVC025
     FM120000 29008KT P6SM SCT035
     FM120200 28006KT P6SM BKN250=

USA.gov is the U.S. government's official web portal to all federal, state and local government web resources and services.